Galveston, TX

1:26 AM CST on January 16, 2018 (GMT -0600)
San Jacinto | | Change Station
Active Advisory: Winter Weather Advisory

Elev 26 ft 29.30 °N, 94.79 °W | Updated 28 seconds ago

Overcast
Overcast
53.6 °F
Feels Like 53.6 °F
N
3.7
Wind Variable Wind from West

Today
High -- | Low -- °F
--% Chance of Precip.
Yesterday
High -- | Low -- °F
Precip. -- in
Pressure 30.31 in
Visibility 10.0 miles
Clouds Overcast 9500 ft
Dew Point 52 °F
Humidity 95%
Rainfall 0.00 in
Snow Depth Not available.
7:14 AM 5:44 PM
Waning Crescent, 1% visible
METAR KGLS 160652Z AUTO 11011KT 10SM OVC095 14/13 A3031 RMK AO2 SLP263 T01440128
Pressure 30.31 in
Visibility 10.0 miles
Clouds Overcast 9500 ft
Dew Point 52 °F
Humidity 95%
Rainfall 0.00 in
Snow Depth Not available.
7:14 AM 5:44 PM
Waning Crescent, 1% visible
METAR KGLS 160652Z AUTO 11011KT 10SM OVC095 14/13 A3031 RMK AO2 SLP263 T01440128

Get Your Daily Forecast Email!

Thanks for signing up!

Be on the lookout for a verification email in your inbox.

You'll start receiving severe weather alerts in your inbox..

×

10-Day Weather Forecast

Almanac

Astronomy

Jan. 16, 2018 Rise Set
Actual Time
Civil Twilight
Nautical Twilight
Astronomical Twilight
Moon
Length of Visible Light
Length of Day
Tomorrow will be .
, % of the Moon is Illuminated

Today's Extremes

State Highs State Lows

Community

WunderPhotos

Category 6

Welcome to Category 6. This is the collective home for Weather Underground's featured writeups by Dr. Jeff Masters (right), Bob Henson (left), Chris Burt, and other regular contributors.

Nearby

Air Quality

  Air Quality AQ Index Pollutant
Not available.

Snow Depth

Station Depth Elevation

Earthquake Activity

City Distance Mag. Time & Date
Minimum magnitude displayed is 2.5.

Coastal Water Temperatures

Place Temperature

Stations

Nearby Weather Stations

Station Location Temp. Windchill Dew Point Humidity Wind Precip. Elev Updated Type
                   

Watches & Warnings

Winter Weather Advisory
Issued: 9:17 PM CST Jan. 15, 2018 – National Weather Service

... Winter Weather Advisory remains in effect from 3 am Tuesday to
midnight CST Wednesday night...

* what... patches of icing possible on Tuesday on roadways and
bridges. Minor ice accumulations possible on power lines.

* Where... mainly south of Interstate 10.

* When... Tuesday morning through the evening.

* Main impact... hazardous travel conditions.

Precautionary/preparedness actions...

A Winter Weather Advisory means that periods of snow... sleet... or
freezing rain will cause travel difficulties. Be prepared for
slippery roads and limited visibilities... and use caution while
driving.